Impacts TAF Board INFO
FOR SITUATIONAL AWARENESS. NOT TO BE USED FOR FLIGHT PLANNING PURPOSES.
IDs:

KORD - Chicago/O'Hare Intl, IL, US

Issued at 1121 UTC 23 May 2018
Updated at 1503 UTC 23 May 2018
Potential Impact None Slight Moderate High
Time1451Z 23/16Z 23/17Z 23/18Z 23/19Z 23/20Z 23/21Z 23/22Z 23/23Z 24/00Z 24/01Z 24/02Z 24/03Z 24/04Z>>
Type OBS PRVL PRVL PRVL
  [TEMP]  
PRVL
  [TEMP]  
PRVL PRVL PRVL PRVL PRVL PRVL PRVL PRVL PRVL
VIS 8 >6 >6 >6 >6 >6 >6 >6 >6 >6 >6 >6 >6 >6
CIG -- -- -- --
  [--]  
--
  [--]  
-- -- -- -- -- -- -- -- --
Cover SCT FEW FEW SCT
  [SCT]  
SCT
  [SCT]  
SCT SCT SCT SCT SCT SCT SCT SCT SCT
FltCat VFR VFR VFR VFR
  [VFR]  
VFR
  [VFR]  
VFR VFR VFR VFR VFR VFR VFR VFR VFR
WX -- -- -- --
  [--]  
--
  [--]  
-- -- -- -- -- -- -- -- --
WDir VRB VRB VRB 80
[80]
80
[80]
80 80 80 80 80 80 80 80 80
WSpd 0 3 3 7
  [11]  
7
  [11]  
7 7 7 7 7 7 7 7 7
WGst -- -- -- --
  [--]  
--
  [--]  
-- -- -- -- -- -- -- -- --

Raw TAF
KORD 231121Z 2312/2418 00000KT 5SM BR BCFG SCT250
  TEMPO 2312/2313 2SM BR MIFG
  FM231300 VRB03KT P6SM FEW250
  FM231800 08007KT P6SM SCT250
  TEMPO 2318/2320 08011KT
  FM241400 16007KT P6SM SCT200


Raw METAR
KORD 231451Z 00000KT 8SM FEW200 SCT250 20/14 A3020 RMK AO2 SLP225 T02000139 50006
KORD 231351Z 00000KT 5SM HZ SCT250 18/14 A3020 RMK AO2 SLP226 T01830139
KORD 231340Z 00000KT 5SM HZ SCT250 18/13 A3020 RMK AO2 T01780133
KORD 231251Z 24003KT 4SM HZ BKN250 15/12 A3019 RMK AO2 SLP223 T01500122

METAR Board
Radar Display
Forecast Discussion

FOR SITUATIONAL AWARENESS. NOT TO BE USED FOR FLIGHT PLANNING PURPOSES.